sensor_id;sensor_type;location;lat;lon;timestamp;pressure;altitude;pressure_sealevel;temperature;humidity
23016;BME280;11674;52.428;13.584;2023-03-15T00:00:53;100477.22;;;3.93;83.01
23016;BME280;11674;52.428;13.584;2023-03-15T00:06:00;100486.47;;;3.87;82.95
23016;BME280;11674;52.428;13.584;2023-03-15T00:11:07;100495.44;;;3.83;83.07
23016;BME280;11674;52.428;13.584;2023-03-15T00:16:14;100502.25;;;3.80;83.10
23016;BME280;11674;52.428;13.584;2023-03-15T00:21:21;100500.84;;;3.78;83.07
23016;BME280;11674;52.428;13.584;2023-03-15T00:26:28;100514.00;;;3.76;83.13
23016;BME280;11674;52.428;13.584;2023-03-15T00:31:35;100516.97;;;3.74;82.89
23016;BME280;11674;52.428;13.584;2023-03-15T00:36:42;100525.91;;;3.65;82.85
23016;BME280;11674;52.428;13.584;2023-03-15T00:41:49;100535.06;;;3.54;82.87
23016;BME280;11674;52.428;13.584;2023-03-15T00:46:56;100553.84;;;3.45;82.89
23016;BME280;11674;52.428;13.584;2023-03-15T00:52:03;100548.03;;;3.42;82.92
23016;BME280;11674;52.428;13.584;2023-03-15T00:57:10;100551.75;;;3.36;82.93
23016;BME280;11674;52.428;13.584;2023-03-15T01:02:17;100557.16;;;3.31;83.04
23016;BME280;11674;52.428;13.584;2023-03-15T01:07:25;100566.94;;;3.27;83.04
23016;BME280;11674;52.428;13.584;2023-03-15T01:12:33;100572.66;;;3.25;83.12
23016;BME280;11674;52.428;13.584;2023-03-15T01:17:41;100574.31;;;3.26;83.22
23016;BME280;11674;52.428;13.584;2023-03-15T01:22:47;100581.72;;;3.26;83.22
23016;BME280;11674;52.428;13.584;2023-03-15T01:27:54;100596.84;;;3.28;83.21
23016;BME280;11674;52.428;13.584;2023-03-15T01:33:01;100600.63;;;3.27;83.16
23016;BME280;11674;52.428;13.584;2023-03-15T01:38:09;100604.72;;;3.25;83.10
23016;BME280;11674;52.428;13.584;2023-03-15T01:43:19;100608.53;;;3.24;83.11
23016;BME280;11674;52.428;13.584;2023-03-15T01:48:31;100605.22;;;3.22;83.03
23016;BME280;11674;52.428;13.584;2023-03-15T01:53:42;100611.19;;;3.19;83.17
23016;BME280;11674;52.428;13.584;2023-03-15T01:58:52;100624.78;;;3.14;83.12
23016;BME280;11674;52.428;13.584;2023-03-15T02:04:06;100616.56;;;3.14;83.23
23016;BME280;11674;52.428;13.584;2023-03-15T02:09:18;100624.22;;;3.12;83.01
23016;BME280;11674;52.428;13.584;2023-03-15T02:14:26;100625.88;;;3.13;83.18
23016;BME280;11674;52.428;13.584;2023-03-15T02:25:05;100637.66;;;3.13;83.44
23016;BME280;11674;52.428;13.584;2023-03-15T02:30:15;100651.94;;;3.15;83.32
23016;BME280;11674;52.428;13.584;2023-03-15T02:35:30;100657.66;;;3.14;83.21
23016;BME280;11674;52.428;13.584;2023-03-15T02:40:37;100662.56;;;3.12;83.33
23016;BME280;11674;52.428;13.584;2023-03-15T02:45:45;100675.41;;;3.11;83.12
23016;BME280;11674;52.428;13.584;2023-03-15T02:50:52;100674.00;;;3.09;83.18
23016;BME280;11674;52.428;13.584;2023-03-15T02:55:59;100676.50;;;3.10;83.36
23016;BME280;11674;52.428;13.584;2023-03-15T03:01:06;100681.97;;;3.10;83.26
23016;BME280;11674;52.428;13.584;2023-03-15T03:06:20;100688.28;;;3.11;83.12
23016;BME280;11674;52.428;13.584;2023-03-15T03:11:28;100693.44;;;3.07;83.12
23016;BME280;11674;52.428;13.584;2023-03-15T03:16:35;100693.91;;;3.04;83.18
23016;BME280;11674;52.428;13.584;2023-03-15T03:21:42;100709.78;;;3.02;83.03
23016;BME280;11674;52.428;13.584;2023-03-15T03:26:48;100711.31;;;2.98;83.17
23016;BME280;11674;52.428;13.584;2023-03-15T03:31:55;100719.31;;;3.00;83.21
23016;BME280;11674;52.428;13.584;2023-03-15T03:37:02;100723.94;;;2.99;83.35
23016;BME280;11674;52.428;13.584;2023-03-15T03:42:28;100727.28;;;3.01;83.31
23016;BME280;11674;52.428;13.584;2023-03-15T03:47:35;100733.34;;;3.03;83.14
23016;BME280;11674;52.428;13.584;2023-03-15T03:52:42;100745.72;;;3.06;83.34
23016;BME280;11674;52.428;13.584;2023-03-15T03:57:55;100748.47;;;3.06;83.40
23016;BME280;11674;52.428;13.584;2023-03-15T04:03:13;100752.41;;;3.10;83.20
23016;BME280;11674;52.428;13.584;2023-03-15T04:08:25;100756.56;;;3.12;83.27
23016;BME280;11674;52.428;13.584;2023-03-15T04:13:32;100765.59;;;3.13;83.19
23016;BME280;11674;52.428;13.584;2023-03-15T04:18:55;100769.88;;;3.09;83.15
23016;BME280;11674;52.428;13.584;2023-03-15T04:24:05;100774.66;;;3.02;82.97
23016;BME280;11674;52.428;13.584;2023-03-15T04:29:45;100785.75;;;2.95;83.09
23016;BME280;11674;52.428;13.584;2023-03-15T04:34:59;100785.53;;;2.85;82.92
23016;BME280;11674;52.428;13.584;2023-03-15T04:40:23;100788.63;;;2.77;82.94
23016;BME280;11674;52.428;13.584;2023-03-15T04:45:40;100793.75;;;2.74;82.80
23016;BME280;11674;52.428;13.584;2023-03-15T04:51:06;100802.09;;;2.67;82.87
23016;BME280;11674;52.428;13.584;2023-03-15T04:56:43;100802.59;;;2.64;82.85
23016;BME280;11674;52.428;13.584;2023-03-15T05:01:56;100820.53;;;2.60;82.78
23016;BME280;11674;52.428;13.584;2023-03-15T05:07:28;100815.78;;;2.56;82.87
23016;BME280;11674;52.428;13.584;2023-03-15T05:12:55;100829.34;;;2.51;82.94
23016;BME280;11674;52.428;13.584;2023-03-15T05:18:24;100835.06;;;2.49;82.86
23016;BME280;11674;52.428;13.584;2023-03-15T05:23:41;100849.19;;;2.46;82.86
23016;BME280;11674;52.428;13.584;2023-03-15T05:29:04;100858.13;;;2.42;83.03
23016;BME280;11674;52.428;13.584;2023-03-15T05:34:31;100861.94;;;2.41;83.04
23016;BME280;11674;52.428;13.584;2023-03-15T05:39:58;100881.09;;;2.41;82.97
23016;BME280;11674;52.428;13.584;2023-03-15T05:45:24;100901.06;;;2.41;83.19
23016;BME280;11674;52.428;13.584;2023-03-15T05:51:00;100893.34;;;2.50;83.39
23016;BME280;11674;52.428;13.584;2023-03-15T05:56:20;100896.13;;;2.61;83.47
23016;BME280;11674;52.428;13.584;2023-03-15T06:01:48;100912.09;;;2.76;83.39
23016;BME280;11674;52.428;13.584;2023-03-15T06:07:02;100911.75;;;2.84;83.44
23016;BME280;11674;52.428;13.584;2023-03-15T06:12:09;100924.00;;;2.93;83.62
23016;BME280;11674;52.428;13.584;2023-03-15T06:17:15;100941.19;;;3.00;83.78
23016;BME280;11674;52.428;13.584;2023-03-15T06:22:26;100946.41;;;3.13;83.94
23016;BME280;11674;52.428;13.584;2023-03-15T06:27:41;100955.47;;;3.36;83.97
23016;BME280;11674;52.428;13.584;2023-03-15T06:32:48;100970.13;;;3.53;83.99
23016;BME280;11674;52.428;13.584;2023-03-15T06:37:54;100979.44;;;3.64;83.71
23016;BME280;11674;52.428;13.584;2023-03-15T06:43:01;100978.47;;;3.70;83.78
23016;BME280;11674;52.428;13.584;2023-03-15T06:48:09;100985.72;;;3.76;83.79
23016;BME280;11674;52.428;13.584;2023-03-15T06:53:17;100994.53;;;3.78;83.64
23016;BME280;11674;52.428;13.584;2023-03-15T06:58:23;101002.19;;;3.76;83.34
23016;BME280;11674;52.428;13.584;2023-03-15T07:03:30;101017.22;;;3.73;83.55
23016;BME280;11674;52.428;13.584;2023-03-15T07:08:37;101009.72;;;3.69;83.55
23016;BME280;11674;52.428;13.584;2023-03-15T07:13:44;101019.22;;;3.78;83.79
23016;BME280;11674;52.428;13.584;2023-03-15T07:18:51;101022.66;;;3.96;84.03
23016;BME280;11674;52.428;13.584;2023-03-15T07:23:58;101026.94;;;4.15;83.79
23016;BME280;11674;52.428;13.584;2023-03-15T07:29:05;101023.56;;;4.25;83.24
23016;BME280;11674;52.428;13.584;2023-03-15T07:34:12;101023.44;;;4.20;83.53
23016;BME280;11674;52.428;13.584;2023-03-15T07:39:19;101031.56;;;4.26;84.05
23016;BME280;11674;52.428;13.584;2023-03-15T07:44:26;101032.09;;;4.51;84.31
23016;BME280;11674;52.428;13.584;2023-03-15T07:49:33;101025.63;;;4.74;84.18
23016;BME280;11674;52.428;13.584;2023-03-15T07:54:40;101031.69;;;5.04;84.47
23016;BME280;11674;52.428;13.584;2023-03-15T07:59:47;101045.91;;;5.29;84.09
23016;BME280;11674;52.428;13.584;2023-03-15T08:04:54;101044.31;;;5.49;84.40
23016;BME280;11674;52.428;13.584;2023-03-15T08:10:03;101047.56;;;5.63;84.26
23016;BME280;11674;52.428;13.584;2023-03-15T08:15:13;101057.31;;;5.70;84.06
23016;BME280;11674;52.428;13.584;2023-03-15T08:20:20;101055.56;;;5.81;84.00
23016;BME280;11674;52.428;13.584;2023-03-15T08:25:28;101059.25;;;5.86;84.38
23016;BME280;11674;52.428;13.584;2023-03-15T08:30:34;101056.78;;;6.06;84.24
23016;BME280;11674;52.428;13.584;2023-03-15T08:35:41;101076.63;;;6.08;84.23
23016;BME280;11674;52.428;13.584;2023-03-15T08:40:48;101080.50;;;6.29;84.44
23016;BME280;11674;52.428;13.584;2023-03-15T08:45:55;101093.06;;;6.41;83.71
23016;BME280;11674;52.428;13.584;2023-03-15T08:51:04;101094.09;;;6.35;83.79
23016;BME280;11674;52.428;13.584;2023-03-15T08:56:11;101102.50;;;6.45;83.91
23016;BME280;11674;52.428;13.584;2023-03-15T09:01:18;101108.00;;;6.45;83.57
23016;BME280;11674;52.428;13.584;2023-03-15T09:06:26;101114.38;;;6.29;83.16
23016;BME280;11674;52.428;13.584;2023-03-15T09:11:33;101119.50;;;6.21;83.47
23016;BME280;11674;52.428;13.584;2023-03-15T09:16:40;101130.03;;;6.24;83.64
23016;BME280;11674;52.428;13.584;2023-03-15T09:21:47;101137.94;;;6.20;83.45
23016;BME280;11674;52.428;13.584;2023-03-15T09:26:54;101141.94;;;6.13;83.43
23016;BME280;11674;52.428;13.584;2023-03-15T09:32:02;101143.78;;;6.24;83.87
23016;BME280;11674;52.428;13.584;2023-03-15T09:37:09;101161.03;;;6.36;83.91
23016;BME280;11674;52.428;13.584;2023-03-15T09:42:21;101166.56;;;6.36;83.64
23016;BME280;11674;52.428;13.584;2023-03-15T09:53:20;101180.81;;;6.49;83.70
23016;BME280;11674;52.428;13.584;2023-03-15T09:58:31;101187.28;;;6.60;83.84
23016;BME280;11674;52.428;13.584;2023-03-15T10:03:45;101189.00;;;6.66;83.68
23016;BME280;11674;52.428;13.584;2023-03-15T10:08:57;101195.78;;;6.75;83.90
23016;BME280;11674;52.428;13.584;2023-03-15T10:14:20;101196.94;;;6.79;83.41
23016;BME280;11674;52.428;13.584;2023-03-15T10:19:39;101201.28;;;6.75;83.76
23016;BME280;11674;52.428;13.584;2023-03-15T10:24:56;101212.56;;;6.73;83.55
23016;BME280;11674;52.428;13.584;2023-03-15T10:30:16;101223.91;;;6.77;83.84
23016;BME280;11674;52.428;13.584;2023-03-15T10:35:24;101224.03;;;6.87;83.71
23016;BME280;11674;52.428;13.584;2023-03-15T10:46:10;101226.47;;;6.83;84.32
23016;BME280;11674;52.428;13.584;2023-03-15T10:56:29;101215.69;;;7.68;84.58
23016;BME280;11674;52.428;13.584;2023-03-15T11:01:38;101225.09;;;7.72;84.19
23016;BME280;11674;52.428;13.584;2023-03-15T11:06:51;101228.28;;;7.59;83.63
23016;BME280;11674;52.428;13.584;2023-03-15T11:12:11;101229.13;;;7.38;83.30
23016;BME280;11674;52.428;13.584;2023-03-15T11:17:23;101232.91;;;7.10;83.19
23016;BME280;11674;52.428;13.584;2023-03-15T11:22:31;101223.69;;;7.21;84.19
23016;BME280;11674;52.428;13.584;2023-03-15T11:27:37;101223.94;;;7.41;84.43
23016;BME280;11674;52.428;13.584;2023-03-15T11:32:45;101231.91;;;7.64;84.67
23016;BME280;11674;52.428;13.584;2023-03-15T11:37:57;101214.38;;;8.07;85.09
23016;BME280;11674;52.428;13.584;2023-03-15T11:43:18;101227.09;;;8.39;84.42
23016;BME280;11674;52.428;13.584;2023-03-15T11:48:31;101219.63;;;8.35;83.62
23016;BME280;11674;52.428;13.584;2023-03-15T11:53:46;101231.44;;;8.25;83.67
23016;BME280;11674;52.428;13.584;2023-03-15T11:59:05;101229.34;;;8.42;83.71
23016;BME280;11674;52.428;13.584;2023-03-15T12:09:46;101239.59;;;8.15;83.32
23016;BME280;11674;52.428;13.584;2023-03-15T12:25:45;101233.06;;;8.58;83.43
23016;BME280;11674;52.428;13.584;2023-03-15T12:30:57;101247.94;;;8.52;82.72
23016;BME280;11674;52.428;13.584;2023-03-15T12:36:15;101244.03;;;8.43;82.85
23016;BME280;11674;52.428;13.584;2023-03-15T12:41:38;101245.19;;;8.52;83.74
23016;BME280;11674;52.428;13.584;2023-03-15T12:57:10;101248.88;;;9.80;83.31
23016;BME280;11674;52.428;13.584;2023-03-15T13:02:34;101261.53;;;9.56;83.41
23016;BME280;11674;52.428;13.584;2023-03-15T13:08:03;101255.19;;;8.99;82.26
23016;BME280;11674;52.428;13.584;2023-03-15T13:18:33;101267.91;;;9.00;83.11
23016;BME280;11674;52.428;13.584;2023-03-15T13:23:42;101273.22;;;8.65;82.77
23016;BME280;11674;52.428;13.584;2023-03-15T13:29:08;101270.06;;;8.52;82.83
23016;BME280;11674;52.428;13.584;2023-03-15T13:34:19;101272.75;;;8.42;83.20
23016;BME280;11674;52.428;13.584;2023-03-15T13:39:30;101269.31;;;8.30;83.31
23016;BME280;11674;52.428;13.584;2023-03-15T13:44:44;101285.31;;;8.23;83.15
23016;BME280;11674;52.428;13.584;2023-03-15T13:49:51;101282.47;;;8.18;83.42
23016;BME280;11674;52.428;13.584;2023-03-15T13:54:59;101274.47;;;8.53;83.67
23016;BME280;11674;52.428;13.584;2023-03-15T14:00:12;101274.06;;;8.66;83.30
23016;BME280;11674;52.428;13.584;2023-03-15T14:05:24;101284.31;;;8.70;83.18
23016;BME280;11674;52.428;13.584;2023-03-15T14:10:37;101284.56;;;8.64;83.11
23016;BME280;11674;52.428;13.584;2023-03-15T14:15:46;101305.53;;;8.60;83.16
23016;BME280;11674;52.428;13.584;2023-03-15T14:26:18;101325.00;;;7.69;82.02
23016;BME280;11674;52.428;13.584;2023-03-15T14:31:26;101330.81;;;7.94;83.22
23016;BME280;11674;52.428;13.584;2023-03-15T14:36:41;101334.16;;;8.44;83.80
23016;BME280;11674;52.428;13.584;2023-03-15T14:41:47;101324.97;;;8.70;83.34
23016;BME280;11674;52.428;13.584;2023-03-15T14:46:55;101315.16;;;8.89;83.93
23016;BME280;11674;52.428;13.584;2023-03-15T14:52:03;101320.31;;;9.17;83.61
23016;BME280;11674;52.428;13.584;2023-03-15T14:57:11;101311.72;;;9.13;83.06
23016;BME280;11674;52.428;13.584;2023-03-15T15:02:18;101320.72;;;8.94;82.95
23016;BME280;11674;52.428;13.584;2023-03-15T15:07:25;101311.81;;;8.87;83.18
23016;BME280;11674;52.428;13.584;2023-03-15T15:12:31;101319.88;;;8.57;82.81
23016;BME280;11674;52.428;13.584;2023-03-15T15:17:39;101316.41;;;8.40;82.93
23016;BME280;11674;52.428;13.584;2023-03-15T15:22:45;101333.84;;;8.40;83.58
23016;BME280;11674;52.428;13.584;2023-03-15T15:27:52;101333.78;;;8.67;83.73
23016;BME280;11674;52.428;13.584;2023-03-15T15:32:59;101345.50;;;8.79;83.81
23016;BME280;11674;52.428;13.584;2023-03-15T15:38:10;101345.78;;;8.82;83.89
23016;BME280;11674;52.428;13.584;2023-03-15T15:43:17;101342.69;;;8.74;83.50
23016;BME280;11674;52.428;13.584;2023-03-15T15:48:24;101341.28;;;8.71;83.47
23016;BME280;11674;52.428;13.584;2023-03-15T15:53:31;101337.91;;;8.64;83.49
23016;BME280;11674;52.428;13.584;2023-03-15T15:58:41;101350.50;;;8.50;83.26
23016;BME280;11674;52.428;13.584;2023-03-15T16:03:49;101353.44;;;8.39;83.25
23016;BME280;11674;52.428;13.584;2023-03-15T16:08:56;101355.59;;;8.32;83.43
23016;BME280;11674;52.428;13.584;2023-03-15T16:14:03;101366.59;;;8.27;83.47
23016;BME280;11674;52.428;13.584;2023-03-15T16:19:10;101368.78;;;8.25;83.58
23016;BME280;11674;52.428;13.584;2023-03-15T16:24:24;101380.66;;;8.25;83.63
23016;BME280;11674;52.428;13.584;2023-03-15T16:29:41;101400.56;;;8.27;83.83
23016;BME280;11674;52.428;13.584;2023-03-15T16:34:50;101427.56;;;7.99;81.97
23016;BME280;11674;52.428;13.584;2023-03-15T16:39:59;101454.16;;;7.29;81.72
23016;BME280;11674;52.428;13.584;2023-03-15T16:45:11;101463.69;;;6.88;82.51
23016;BME280;11674;52.428;13.584;2023-03-15T16:50:19;101461.97;;;6.71;83.00
23016;BME280;11674;52.428;13.584;2023-03-15T16:55:28;101457.78;;;6.68;83.33
23016;BME280;11674;52.428;13.584;2023-03-15T17:00:36;101454.94;;;6.63;83.24
23016;BME280;11674;52.428;13.584;2023-03-15T17:05:44;101474.66;;;6.55;83.26
23016;BME280;11674;52.428;13.584;2023-03-15T17:10:52;101484.16;;;6.48;83.38
23016;BME280;11674;52.428;13.584;2023-03-15T17:15:59;101493.41;;;6.42;83.29
23016;BME280;11674;52.428;13.584;2023-03-15T17:21:07;101502.16;;;6.39;83.39
23016;BME280;11674;52.428;13.584;2023-03-15T17:26:18;101508.06;;;6.31;83.31
23016;BME280;11674;52.428;13.584;2023-03-15T17:31:27;101525.47;;;6.20;83.33
23016;BME280;11674;52.428;13.584;2023-03-15T17:36:35;101535.28;;;6.16;83.51
23016;BME280;11674;52.428;13.584;2023-03-15T17:41:45;101539.25;;;6.08;83.48
23016;BME280;11674;52.428;13.584;2023-03-15T17:46:53;101533.63;;;6.03;83.60
23016;BME280;11674;52.428;13.584;2023-03-15T17:52:00;101543.19;;;6.01;83.69
23016;BME280;11674;52.428;13.584;2023-03-15T17:57:10;101553.88;;;5.97;83.51
23016;BME280;11674;52.428;13.584;2023-03-15T18:02:18;101562.00;;;5.92;83.68
23016;BME280;11674;52.428;13.584;2023-03-15T18:07:25;101563.81;;;5.87;83.53
23016;BME280;11674;52.428;13.584;2023-03-15T18:12:32;101569.19;;;5.82;83.55
23016;BME280;11674;52.428;13.584;2023-03-15T18:17:39;101571.81;;;5.77;83.58
23016;BME280;11674;52.428;13.584;2023-03-15T18:22:46;101579.69;;;5.73;83.51
23016;BME280;11674;52.428;13.584;2023-03-15T18:27:54;101583.78;;;5.71;83.47
23016;BME280;11674;52.428;13.584;2023-03-15T18:33:01;101588.53;;;5.64;83.46
23016;BME280;11674;52.428;13.584;2023-03-15T18:38:08;101590.78;;;5.55;83.45
23016;BME280;11674;52.428;13.584;2023-03-15T18:43:22;101600.47;;;5.46;83.51
23016;BME280;11674;52.428;13.584;2023-03-15T18:48:29;101603.78;;;5.37;83.42
23016;BME280;11674;52.428;13.584;2023-03-15T18:53:36;101618.50;;;5.31;83.75
23016;BME280;11674;52.428;13.584;2023-03-15T18:58:43;101620.16;;;5.32;83.71
23016;BME280;11674;52.428;13.584;2023-03-15T19:03:51;101630.84;;;5.40;84.16
23016;BME280;11674;52.428;13.584;2023-03-15T19:08:58;101635.41;;;5.46;83.99
23016;BME280;11674;52.428;13.584;2023-03-15T19:14:05;101623.09;;;5.48;83.90
23016;BME280;11674;52.428;13.584;2023-03-15T19:19:12;101633.25;;;5.48;83.77
23016;BME280;11674;52.428;13.584;2023-03-15T19:24:19;101639.22;;;5.45;83.72
23016;BME280;11674;52.428;13.584;2023-03-15T19:29:26;101641.84;;;5.40;83.74
23016;BME280;11674;52.428;13.584;2023-03-15T19:34:33;101644.47;;;5.35;83.55
23016;BME280;11674;52.428;13.584;2023-03-15T19:39:40;101645.16;;;5.30;83.55
23016;BME280;11674;52.428;13.584;2023-03-15T19:44:47;101651.84;;;5.23;83.58
23016;BME280;11674;52.428;13.584;2023-03-15T19:49:54;101653.97;;;5.21;83.70
23016;BME280;11674;52.428;13.584;2023-03-15T19:55:01;101661.84;;;5.17;83.71
23016;BME280;11674;52.428;13.584;2023-03-15T20:00:11;101669.13;;;5.12;83.62
23016;BME280;11674;52.428;13.584;2023-03-15T20:05:19;101681.44;;;5.09;83.65
23016;BME280;11674;52.428;13.584;2023-03-15T20:10:26;101682.59;;;5.02;83.55
23016;BME280;11674;52.428;13.584;2023-03-15T20:15:33;101685.78;;;4.99;83.55
23016;BME280;11674;52.428;13.584;2023-03-15T20:20:40;101691.13;;;4.94;83.57
23016;BME280;11674;52.428;13.584;2023-03-15T20:25:47;101698.66;;;4.87;83.40
23016;BME280;11674;52.428;13.584;2023-03-15T20:30:54;101706.72;;;4.82;83.60
23016;BME280;11674;52.428;13.584;2023-03-15T20:36:01;101692.63;;;4.78;83.77
23016;BME280;11674;52.428;13.584;2023-03-15T20:41:08;101703.25;;;4.75;83.38
23016;BME280;11674;52.428;13.584;2023-03-15T20:46:15;101703.75;;;4.65;83.21
23016;BME280;11674;52.428;13.584;2023-03-15T20:51:22;101714.41;;;4.55;83.38
23016;BME280;11674;52.428;13.584;2023-03-15T20:56:29;101719.00;;;4.43;83.31
23016;BME280;11674;52.428;13.584;2023-03-15T21:01:36;101724.16;;;4.33;83.21
23016;BME280;11674;52.428;13.584;2023-03-15T21:06:43;101728.88;;;4.26;83.18
23016;BME280;11674;52.428;13.584;2023-03-15T21:11:50;101730.00;;;4.19;83.36
23016;BME280;11674;52.428;13.584;2023-03-15T21:16:57;101730.53;;;4.09;83.28
23016;BME280;11674;52.428;13.584;2023-03-15T21:22:04;101736.28;;;4.01;83.19
23016;BME280;11674;52.428;13.584;2023-03-15T21:27:11;101747.56;;;3.93;83.20
23016;BME280;11674;52.428;13.584;2023-03-15T21:32:18;101744.00;;;3.86;83.11
23016;BME280;11674;52.428;13.584;2023-03-15T21:37:25;101758.22;;;3.77;83.24
23016;BME280;11674;52.428;13.584;2023-03-15T21:42:33;101751.09;;;3.69;83.19
23016;BME280;11674;52.428;13.584;2023-03-15T21:47:40;101757.25;;;3.65;83.20
23016;BME280;11674;52.428;13.584;2023-03-15T21:52:47;101766.97;;;3.61;83.24
23016;BME280;11674;52.428;13.584;2023-03-15T21:57:54;101762.97;;;3.57;83.41
23016;BME280;11674;52.428;13.584;2023-03-15T22:03:01;101765.97;;;3.55;83.45
23016;BME280;11674;52.428;13.584;2023-03-15T22:08:08;101763.84;;;3.51;83.14
23016;BME280;11674;52.428;13.584;2023-03-15T22:13:15;101779.09;;;3.47;83.17
23016;BME280;11674;52.428;13.584;2023-03-15T22:18:22;101777.84;;;3.43;83.35
23016;BME280;11674;52.428;13.584;2023-03-15T22:23:29;101783.34;;;3.36;83.25
23016;BME280;11674;52.428;13.584;2023-03-15T22:28:36;101790.56;;;3.31;83.26
23016;BME280;11674;52.428;13.584;2023-03-15T22:33:43;101795.84;;;3.26;83.30
23016;BME280;11674;52.428;13.584;2023-03-15T22:38:50;101800.09;;;3.22;83.14
23016;BME280;11674;52.428;13.584;2023-03-15T22:43:57;101807.06;;;3.18;83.36
23016;BME280;11674;52.428;13.584;2023-03-15T22:49:04;101814.88;;;3.14;83.28
23016;BME280;11674;52.428;13.584;2023-03-15T22:54:11;101811.72;;;3.11;83.29
23016;BME280;11674;52.428;13.584;2023-03-15T22:59:18;101815.09;;;3.06;83.17
23016;BME280;11674;52.428;13.584;2023-03-15T23:04:25;101821.88;;;3.04;83.33
23016;BME280;11674;52.428;13.584;2023-03-15T23:09:32;101826.09;;;3.00;83.29
23016;BME280;11674;52.428;13.584;2023-03-15T23:14:39;101825.03;;;2.94;83.05
23016;BME280;11674;52.428;13.584;2023-03-15T23:19:46;101834.72;;;2.90;83.17
23016;BME280;11674;52.428;13.584;2023-03-15T23:24:53;101846.13;;;2.87;83.24
23016;BME280;11674;52.428;13.584;2023-03-15T23:30:00;101832.44;;;2.81;83.28
23016;BME280;11674;52.428;13.584;2023-03-15T23:35:09;101837.31;;;2.79;83.21
23016;BME280;11674;52.428;13.584;2023-03-15T23:40:16;101842.59;;;2.74;83.09
23016;BME280;11674;52.428;13.584;2023-03-15T23:45:24;101846.78;;;2.70;83.11
23016;BME280;11674;52.428;13.584;2023-03-15T23:50:31;101847.00;;;2.68;83.12
23016;BME280;11674;52.428;13.584;2023-03-15T23:55:38;101849.31;;;2.65;83.16
